Unadilla, NE (68454)

10:10 PM CDT on August 23, 2016 (GMT -0500)
Lazy R Ranch | | Change Station

Elev 1214 ft 40.68 °N, 96.34 °W | Updated 1 second ago

Mostly Cloudy
Mostly Cloudy
77.5 °F
Feels Like 79 °F
N
6.0
Wind Variable Wind from South
Gusts 9.8 mph

Today
High -- | Low -- °F
--% Chance of Precip.
Yesterday
High -- | Low -- °F
Precip. -- in
Pressure 29.87 in
Visibility 10.0 miles
Clouds Scattered Clouds 8000 ft
Scattered Clouds 9000 ft
Mostly Cloudy 11000 ft
Heat Index 79 °F
Dew Point 71 °F
Humidity 81%
Rainfall 0.07 in
Snow Depth Not available.
6:43 AM 8:10 PM
Waning Gibbous, 62% visible
METAR KAFK 240255Z AUTO 16011KT 10SM SCT080 SCT090 BKN110 26/23 A2987 RMK AO2 LTG DSNT N S AND NW T02560225
Pressure 29.87 in
Visibility 10.0 miles
Clouds Scattered Clouds 8000 ft
Scattered Clouds 9000 ft
Mostly Cloudy 11000 ft
Heat Index 79 °F
Dew Point 71 °F
Humidity 81%
Rainfall 0.07 in
Snow Depth Not available.
6:43 AM 8:10 PM
Waning Gibbous, 62% visible
METAR KAFK 240255Z AUTO 16011KT 10SM SCT080 SCT090 BKN110 26/23 A2987 RMK AO2 LTG DSNT N S AND NW T02560225

10-Day Weather Forecast

Almanac

Astronomy

Aug. 23, 2016 Rise Set
Actual Time
Civil Twilight
Nautical Twilight
Astronomical Twilight
Moon
Length of Visible Light
Length of Day
Tomorrow will be .
, % of the Moon is Illuminated

Today's Extremes

State Highs State Lows

Community

WunderPhotos

Upload Photos

1,934,538 photos uploaded!

WunderBlog® & News

Nearby

Air Quality

  Air Quality AQ Index Pollutant
Not available.

Snow Depth

Station Depth Elevation

Earthquake Activity

City Distance Mag. Time & Date
Minimum magnitude displayed is 2.5.

Coastal Water Temperatures

Place Temperature

Stations

Nearby Weather Stations

Station Location Temp. Windchill Dew Point Humidity Wind Precip. Elev Updated Type
                   

Watches & Warnings

There are currently no watches in effect.